Time;durP1;ratioP1;P1;durP2;ratioP2;P2;SDS_P1;SDS_P2;PMS_P1;PMS_P2;Temp;Humidity;BMP_temperature;BMP_pressure;BME280_temperature;BME280_humidity;BME280_pressure;Samples;Min_cycle;Max_cycle;Signal;HPM_P1;HPM_P2
2023/04/30 06:05:41;;;;;;;14.20;12.07;;;;;;;;;;5874707;23;20360;-80
2023/04/30 06:08:06;;;;;;;17.65;12.70;;;;;;;;;;4937466;29;20044;-76
2023/04/30 06:10:32;;;;;;;15.13;12.70;;;;;;;;;;4937345;29;20035;-79
2023/04/30 06:12:57;;;;;;;14.18;12.15;;;;;;;;;;4936025;29;20492;-77
2023/04/30 06:15:23;;;;;;;14.73;12.38;;;;;;;;;;4936735;29;20023;-77
2023/04/30 06:17:48;;;;;;;13.82;12.13;;;;;;;;;;4937348;29;20534;-80
2023/04/30 06:20:14;;;;;;;13.82;11.70;;;;;;;;;;4937059;29;20031;-75
2023/04/30 12:22:56;;;;;;;10.07;9.00;;;;;;;;;;4907134;29;20052;-75
2023/04/30 12:25:23;;;;;;;7.90;7.20;;;;;;;;;;4901447;29;20037;-80
2023/04/30 12:27:50;;;;;;;5.47;4.97;;;;;;;;;;4901624;29;20025;-77
2023/04/30 12:30:20;;;;;;;8.50;7.80;;;;;;;;;;4901531;29;20123;-76
2023/04/30 12:32:49;;;;;;;9.73;8.70;;;;;;;;;;4901698;29;20016;-88
2023/04/30 12:35:20;;;;;;;8.45;7.00;;;;;;;;;;4901719;29;20036;-76
2023/04/30 12:37:51;;;;;;;11.77;10.68;;;;;;;;;;4901422;29;20037;-76
2023/04/30 12:40:19;;;;;;;9.10;7.47;;;;;;;;;;4901603;29;20020;-77
2023/04/30 12:42:45;;;;;;;6.93;5.50;;;;;;;;;;4901424;29;20037;-91
2023/04/30 12:45:12;;;;;;;7.25;6.55;;;;;;;;;;4901372;29;20039;-80
2023/04/30 12:47:41;;;;;;;6.03;5.43;;;;;;;;;;4901402;29;20046;-76
2023/04/30 12:50:13;;;;;;;5.90;5.28;;;;;;;;;;4900995;29;20036;-77
2023/04/30 12:52:40;;;;;;;6.47;4.88;;;;;;;;;;4902922;29;20048;-77
2023/04/30 12:55:19;;;;;;;3.22;2.90;;;;;;;;;;4901334;29;20028;-77
2023/04/30 12:58:08;;;;;;;11.15;5.38;;;;;;;;;;4900858;29;20036;-83
2023/04/30 13:00:43;;;;;;;6.50;5.00;;;;;;;;;;4900645;29;20029;-76
2023/04/30 13:03:10;;;;;;;3.80;3.50;;;;;;;;;;4901372;29;20120;-76
2023/04/30 13:05:36;;;;;;;6.65;6.00;;;;;;;;;;4900967;29;20052;-77
2023/04/30 13:08:04;;;;;;;7.57;5.50;;;;;;;;;;4901849;29;20044;-76
2023/04/30 13:10:30;;;;;;;3.28;2.97;;;;;;;;;;4919525;29;20570;-79
2023/04/30 13:12:56;;;;;;;5.53;5.03;;;;;;;;;;4919613;29;20063;-76
2023/04/30 13:15:21;;;;;;;11.02;9.93;;;;;;;;;;4919351;29;20464;-76
2023/04/30 13:17:47;;;;;;;10.23;9.15;;;;;;;;;;4919316;29;20070;-76
2023/04/30 13:20:14;;;;;;;8.68;7.80;;;;;;;;;;4919335;29;20132;-87
2023/04/30 13:22:39;;;;;;;5.93;3.60;;;;;;;;;;4936092;29;20410;-76
2023/04/30 13:25:05;;;;;;;7.10;6.25;;;;;;;;;;4957264;29;20030;-82
2023/04/30 13:27:31;;;;;;;8.43;6.70;;;;;;;;;;4957507;29;20102;-76
2023/04/30 13:29:56;;;;;;;9.57;8.68;;;;;;;;;;4957072;29;20085;-76
2023/04/30 13:32:22;;;;;;;13.48;12.10;;;;;;;;;;4957162;29;20039;-76
2023/04/30 13:34:48;;;;;;;14.90;13.50;;;;;;;;;;4940002;29;20055;-91
2023/04/30 13:37:13;;;;;;;11.65;10.45;;;;;;;;;;4957400;29;20467;-75
2023/04/30 13:39:39;;;;;;;11.65;10.30;;;;;;;;;;4957428;29;20081;-76
2023/04/30 13:42:04;;;;;;;9.95;8.07;;;;;;;;;;4957190;29;20385;-78
2023/04/30 13:44:32;;;;;;;12.45;11.15;;;;;;;;;;4957078;29;20042;-76
2023/04/30 13:46:58;;;;;;;12.38;10.15;;;;;;;;;;4940006;29;20398;-76
2023/04/30 13:49:23;;;;;;;18.35;14.40;;;;;;;;;;4957230;29;20031;-90
2023/04/30 13:51:49;;;;;;;13.80;12.13;;;;;;;;;;4957045;29;20039;-77
2023/04/30 13:54:14;;;;;;;8.25;7.45;;;;;;;;;;4957098;29;20023;-85
2023/04/30 13:56:40;;;;;;;7.25;6.53;;;;;;;;;;4957260;29;20039;-86
2023/04/30 13:59:05;;;;;;;10.48;8.75;;;;;;;;;;4951621;29;20431;-78
2023/04/30 14:01:32;;;;;;;9.93;8.38;;;;;;;;;;4937665;29;20036;-88
2023/04/30 14:03:57;;;;;;;7.03;6.32;;;;;;;;;;4938115;29;20062;-91
2023/04/30 14:06:23;;;;;;;10.18;9.10;;;;;;;;;;4937857;29;20451;-76
2023/04/30 14:08:48;;;;;;;13.05;11.63;;;;;;;;;;4937620;29;20056;-77
2023/04/30 14:11:14;;;;;;;11.55;10.35;;;;;;;;;;4936640;29;20034;-76
2023/04/30 14:13:40;;;;;;;7.30;6.60;;;;;;;;;;4937426;29;20031;-75
2023/04/30 14:16:06;;;;;;;6.10;5.55;;;;;;;;;;4937495;29;20059;-81
2023/04/30 14:18:31;;;;;;;11.57;9.25;;;;;;;;;;4920005;29;20482;-84
2023/04/30 14:20:57;;;;;;;10.95;9.40;;;;;;;;;;4937400;29;20027;-79
2023/04/30 14:23:22;;;;;;;7.65;6.68;;;;;;;;;;4937290;29;20047;-86
2023/04/30 14:25:47;;;;;;;12.45;11.20;;;;;;;;;;4920595;29;20383;-80
2023/04/30 14:28:13;;;;;;;10.48;8.77;;;;;;;;;;4936932;29;20054;-87
2023/04/30 14:30:39;;;;;;;7.63;6.80;;;;;;;;;;4943262;29;20414;-86
2023/04/30 14:33:05;;;;;;;5.63;5.10;;;;;;;;;;4939580;29;20165;-80
2023/04/30 14:35:31;;;;;;;9.70;8.70;;;;;;;;;;4956278;29;20118;-79
2023/04/30 14:37:56;;;;;;;9.90;8.00;;;;;;;;;;4956103;29;20031;-78
2023/04/30 14:40:22;;;;;;;12.02;8.95;;;;;;;;;;4956128;29;20363;-79
2023/04/30 14:42:49;;;;;;;11.10;9.70;;;;;;;;;;4956261;29;20126;-78
2023/04/30 14:45:14;;;;;;;7.05;6.35;;;;;;;;;;4957120;29;20024;-90
2023/04/30 14:47:40;;;;;;;7.68;6.82;;;;;;;;;;4956010;29;20065;-77
2023/04/30 14:50:06;;;;;;;7.85;7.05;;;;;;;;;;4956128;29;20363;-79
2023/04/30 14:52:32;;;;;;;8.82;6.72;;;;;;;;;;4938741;29;20030;-79
2023/04/30 14:54:57;;;;;;;8.50;7.25;;;;;;;;;;4956021;29;20049;-79
2023/04/30 14:57:22;;;;;;;8.43;7.50;;;;;;;;;;4955764;29;20060;-78
2023/04/30 14:59:48;;;;;;;8.55;7.10;;;;;;;;;;4956213;29;20462;-79
2023/04/30 15:02:13;;;;;;;6.47;5.80;;;;;;;;;;4955802;29;20478;-78
2023/04/30 15:04:39;;;;;;;7.13;5.90;;;;;;;;;;4955674;29;20035;-76
2023/04/30 15:07:05;;;;;;;5.80;5.30;;;;;;;;;;4938510;29;20047;-77
2023/04/30 15:09:30;;;;;;;5.35;4.85;;;;;;;;;;4955585;29;20039;-77
2023/04/30 15:11:56;;;;;;;6.70;5.15;;;;;;;;;;4955888;29;20031;-78
2023/04/30 15:14:22;;;;;;;6.68;4.63;;;;;;;;;;4955688;29;20027;-78
2023/04/30 15:16:47;;;;;;;4.32;3.78;;;;;;;;;;4955569;29;20110;-80
2023/04/30 17:12:51;;;;;;;2.47;2.38;;;;;;;;;;4956578;28;20134;-77
2023/04/30 17:15:19;;;;;;;2.55;2.35;;;;;;;;;;4957745;29;20031;-77
2023/04/30 17:17:44;;;;;;;3.47;2.97;;;;;;;;;;4957435;29;20070;-78
2023/04/30 17:20:11;;;;;;;5.50;5.00;;;;;;;;;;4957687;29;20058;-77
2023/04/30 17:22:37;;;;;;;5.95;5.40;;;;;;;;;;4957473;29;20042;-79
2023/04/30 17:25:03;;;;;;;4.45;4.05;;;;;;;;;;4957741;29;20027;-78
2023/04/30 17:27:28;;;;;;;5.05;4.55;;;;;;;;;;4957688;29;20110;-77
2023/04/30 17:29:54;;;;;;;4.72;3.78;;;;;;;;;;4957432;29;20114;-78
2023/04/30 17:32:20;;;;;;;3.95;3.53;;;;;;;;;;4957504;29;20046;-78
2023/04/30 17:34:45;;;;;;;2.53;2.33;;;;;;;;;;4957531;29;20047;-79
2023/04/30 17:37:11;;;;;;;3.58;2.40;;;;;;;;;;4958125;29;20034;-78
2023/04/30 17:39:36;;;;;;;3.00;2.70;;;;;;;;;;4957344;29;20035;-80
2023/04/30 17:42:02;;;;;;;2.92;2.72;;;;;;;;;;4957482;29;20387;-79
2023/04/30 17:44:30;;;;;;;3.13;2.83;;;;;;;;;;4957833;29;20027;-87
2023/04/30 17:46:55;;;;;;;2.80;2.60;;;;;;;;;;4957421;29;20030;-80
2023/04/30 17:49:21;;;;;;;2.70;2.50;;;;;;;;;;4957575;29;20027;-84
2023/04/30 17:51:47;;;;;;;2.55;2.35;;;;;;;;;;4957190;29;20441;-82
2023/04/30 17:54:12;;;;;;;2.60;2.40;;;;;;;;;;4957288;29;20383;-83
2023/04/30 17:56:38;;;;;;;2.55;2.35;;;;;;;;;;4956892;29;20034;-77
2023/04/30 17:59:03;;;;;;;2.42;2.20;;;;;;;;;;4956937;29;20023;-78
2023/04/30 18:01:29;;;;;;;2.30;2.10;;;;;;;;;;4956993;29;20023;-79
2023/04/30 18:03:54;;;;;;;2.47;2.28;;;;;;;;;;4956862;29;20031;-79
2023/04/30 18:06:20;;;;;;;2.50;2.30;;;;;;;;;;4956761;29;20031;-80
2023/04/30 18:08:45;;;;;;;6.07;4.43;;;;;;;;;;4956919;29;20039;-78
2023/04/30 18:11:11;;;;;;;3.80;3.40;;;;;;;;;;4956590;29;20031;-84
2023/04/30 18:13:37;;;;;;;5.50;4.97;;;;;;;;;;4956462;29;20386;-77
2023/04/30 18:16:02;;;;;;;4.25;3.65;;;;;;;;;;4956817;29;20045;-79
2023/04/30 18:18:28;;;;;;;4.43;2.97;;;;;;;;;;4956569;29;20028;-78
2023/04/30 18:20:54;;;;;;;2.70;2.50;;;;;;;;;;4956816;29;20023;-87
2023/04/30 18:23:20;;;;;;;3.05;2.40;;;;;;;;;;4941640;29;20538;-89
2023/04/30 18:25:46;;;;;;;2.30;2.10;;;;;;;;;;4960810;29;20023;-80
2023/04/30 18:28:12;;;;;;;2.67;2.47;;;;;;;;;;4959485;29;20134;-82
2023/04/30 18:30:38;;;;;;;3.08;2.78;;;;;;;;;;4956949;29;20031;-80
2023/04/30 18:33:03;;;;;;;4.43;3.03;;;;;;;;;;4956003;29;20031;-83
2023/04/30 18:35:29;;;;;;;2.65;2.45;;;;;;;;;;4956801;29;20027;-84
2023/04/30 18:37:56;;;;;;;2.70;2.42;;;;;;;;;;4956611;29;20039;-84
2023/04/30 18:40:22;;;;;;;3.45;2.58;;;;;;;;;;4958473;29;20474;-84
2023/04/30 18:42:47;;;;;;;2.55;2.35;;;;;;;;;;4957937;29;20039;-88
2023/04/30 18:45:14;;;;;;;2.95;2.65;;;;;;;;;;4957107;29;20110;-82
2023/04/30 18:47:40;;;;;;;4.07;3.17;;;;;;;;;;4956327;29;20037;-77
2023/04/30 18:50:09;;;;;;;3.55;2.90;;;;;;;;;;4955881;29;20039;-80
2023/04/30 18:52:35;;;;;;;4.78;3.20;;;;;;;;;;4956066;29;20057;-78
2023/04/30 19:02:46;;;;;;;3.83;2.90;;;;;;;;;;5947194;23;20962;-77
2023/04/30 19:05:13;;;;;;;4.22;3.30;;;;;;;;;;4936146;29;20351;-76
2023/04/30 19:07:38;;;;;;;2.83;2.63;;;;;;;;;;4935933;29;20028;-77
2023/04/30 19:10:04;;;;;;;3.30;3.00;;;;;;;;;;4936322;29;20355;-76
2023/04/30 19:12:30;;;;;;;4.07;3.00;;;;;;;;;;4925794;29;20055;-77
2023/04/30 19:14:55;;;;;;;3.80;3.17;;;;;;;;;;4919436;29;20463;-78
2023/04/30 19:17:21;;;;;;;3.65;3.35;;;;;;;;;;4925727;29;20471;-77
2023/04/30 19:19:47;;;;;;;3.25;2.80;;;;;;;;;;4925672;29;20032;-77
2023/04/30 19:22:13;;;;;;;2.65;2.22;;;;;;;;;;4926027;29;20055;-78
2023/04/30 19:24:39;;;;;;;2.50;2.30;;;;;;;;;;4925144;29;20046;-78
2023/04/30 19:27:05;;;;;;;2.35;2.15;;;;;;;;;;4925707;29;20457;-77
2023/04/30 19:29:31;;;;;;;1.88;1.77;;;;;;;;;;4925841;29;20027;-78
2023/04/30 19:31:57;;;;;;;2.38;2.10;;;;;;;;;;4925731;29;20074;-77
2023/04/30 19:34:24;;;;;;;2.30;2.08;;;;;;;;;;4925989;29;20154;-77
2023/04/30 19:36:50;;;;;;;2.40;2.15;;;;;;;;;;4924884;29;20094;-77
2023/04/30 19:39:15;;;;;;;2.58;2.38;;;;;;;;;;4925472;29;20024;-77
2023/04/30 19:41:40;;;;;;;2.85;2.50;;;;;;;;;;4925648;29;20028;-77
2023/04/30 19:44:06;;;;;;;2.53;1.98;;;;;;;;;;4925525;29;20036;-77
2023/04/30 19:46:32;;;;;;;2.10;2.00;;;;;;;;;;4925281;29;20032;-78
2023/04/30 19:48:58;;;;;;;2.28;2.17;;;;;;;;;;4925878;29;20455;-77
2023/04/30 19:51:23;;;;;;;2.10;2.00;;;;;;;;;;4924668;29;20062;-77
2023/04/30 19:53:50;;;;;;;2.20;2.10;;;;;;;;;;4925834;29;20490;-77
2023/04/30 19:56:16;;;;;;;2.42;2.10;;;;;;;;;;4925397;29;20027;-77
2023/04/30 19:58:42;;;;;;;2.30;2.10;;;;;;;;;;4924837;29;20020;-84
2023/04/30 20:01:08;;;;;;;2.50;2.20;;;;;;;;;;4922474;29;20066;-78
2023/04/30 20:03:34;;;;;;;2.35;2.22;;;;;;;;;;4916693;29;20394;-84
2023/04/30 20:06:01;;;;;;;2.33;2.15;;;;;;;;;;4917006;29;20121;-85
2023/04/30 20:08:27;;;;;;;2.35;2.08;;;;;;;;;;4917321;29;20035;-79
2023/04/30 20:10:53;;;;;;;1.73;1.63;;;;;;;;;;4920801;29;20484;-84
2023/04/30 20:13:21;;;;;;;2.13;1.92;;;;;;;;;;4920680;29;20024;-79
2023/04/30 20:15:47;;;;;;;2.05;1.90;;;;;;;;;;4920913;29;20483;-79
2023/04/30 20:18:13;;;;;;;1.90;1.80;;;;;;;;;;4920725;29;20483;-81
2023/04/30 20:20:38;;;;;;;2.30;2.10;;;;;;;;;;4920560;29;20050;-82
2023/04/30 20:23:15;;;;;;;2.25;2.10;;;;;;;;;;4920932;29;20372;-82
2023/04/30 20:25:44;;;;;;;1.92;1.60;;;;;;;;;;4920652;29;20033;-79
2023/04/30 20:28:12;;;;;;;2.17;2.00;;;;;;;;;;4920606;29;20028;-81
2023/04/30 20:30:41;;;;;;;1.77;1.67;;;;;;;;;;4920475;29;20032;-81
2023/04/30 20:33:08;;;;;;;2.20;1.80;;;;;;;;;;4920367;29;20486;-80
2023/04/30 20:35:33;;;;;;;2.88;1.75;;;;;;;;;;4920695;29;20115;-77
2023/04/30 20:37:59;;;;;;;2.08;1.98;;;;;;;;;;4920178;29;20111;-80
2023/04/30 20:40:26;;;;;;;2.03;1.90;;;;;;;;;;4920245;29;20111;-78
2023/04/30 20:42:52;;;;;;;1.98;1.88;;;;;;;;;;4920610;29;20440;-78
2023/04/30 20:45:18;;;;;;;2.05;1.95;;;;;;;;;;4920134;29;20036;-79
2023/04/30 20:47:44;;;;;;;2.20;2.00;;;;;;;;;;4919958;29;20032;-78
2023/04/30 20:50:10;;;;;;;1.90;1.80;;;;;;;;;;4920314;29;20063;-80
2023/04/30 20:52:35;;;;;;;1.98;1.88;;;;;;;;;;4920328;29;20468;-78
2023/04/30 20:55:01;;;;;;;1.80;1.70;;;;;;;;;;4920130;29;20043;-78
2023/04/30 20:57:26;;;;;;;1.70;1.60;;;;;;;;;;4902892;29;20107;-78
2023/04/30 20:59:52;;;;;;;1.80;1.70;;;;;;;;;;4920113;29;20088;-79
2023/04/30 21:02:17;;;;;;;1.92;1.70;;;;;;;;;;4920161;29;20386;-80
2023/04/30 21:04:43;;;;;;;1.70;1.60;;;;;;;;;;4920463;29;20076;-78
2023/04/30 21:07:08;;;;;;;2.25;2.00;;;;;;;;;;4919906;29;20028;-79
2023/04/30 21:09:34;;;;;;;2.10;2.00;;;;;;;;;;4919870;29;20036;-80
2023/04/30 21:12:04;;;;;;;1.95;1.85;;;;;;;;;;4920008;29;20028;-81
2023/04/30 21:14:29;;;;;;;;;;;;;;;;;;4920108;29;20039;-81
2023/04/30 21:16:55;;;;;;;2.20;2.00;;;;;;;;;;4919618;29;19919;-78
2023/04/30 21:19:20;;;;;;;2.42;2.00;;;;;;;;;;4919613;29;20539;-79
2023/04/30 21:21:46;;;;;;;1.77;1.67;;;;;;;;;;4919571;29;20126;-77
2023/04/30 21:24:12;;;;;;;1.60;1.50;;;;;;;;;;4919718;29;20024;-81
2023/04/30 21:26:37;;;;;;;1.80;1.70;;;;;;;;;;4919678;29;20387;-79
2023/04/30 21:29:03;;;;;;;1.80;1.70;;;;;;;;;;4919686;29;20055;-78
2023/04/30 21:31:28;;;;;;;2.65;1.90;;;;;;;;;;4919680;29;20127;-81
2023/04/30 21:33:54;;;;;;;1.90;1.80;;;;;;;;;;4919323;29;20024;-77
2023/04/30 21:36:20;;;;;;;2.53;1.90;;;;;;;;;;4919715;29;20100;-85
2023/04/30 21:38:46;;;;;;;2.13;1.90;;;;;;;;;;4919659;29;20020;-84
2023/04/30 21:41:16;;;;;;;1.70;1.60;;;;;;;;;;4919391;29;20379;-79
2023/04/30 21:43:42;;;;;;;1.80;1.70;;;;;;;;;;4919092;29;20083;-81
2023/04/30 21:46:08;;;;;;;1.80;1.70;;;;;;;;;;4919362;29;20038;-79
2023/04/30 21:48:34;;;;;;;1.80;1.70;;;;;;;;;;4919175;29;20495;-83
2023/04/30 21:50:59;;;;;;;1.77;1.60;;;;;;;;;;4919451;29;20028;-79
2023/04/30 21:53:25;;;;;;;2.42;1.85;;;;;;;;;;4919657;29;20490;-77
2023/04/30 21:55:50;;;;;;;1.88;1.77;;;;;;;;;;4919080;29;20502;-77
2023/04/30 21:58:16;;;;;;;1.77;1.67;;;;;;;;;;4918889;29;20036;-77
2023/04/30 22:00:42;;;;;;;1.80;1.70;;;;;;;;;;4918866;29;20476;-77
2023/04/30 22:03:08;;;;;;;2.00;1.90;;;;;;;;;;4901891;29;20091;-77
2023/04/30 22:05:34;;;;;;;1.92;1.83;;;;;;;;;;4918933;29;20024;-77
2023/04/30 22:08:01;;;;;;;1.70;1.60;;;;;;;;;;4901909;29;20031;-77
2023/04/30 22:10:27;;;;;;;1.60;1.50;;;;;;;;;;4918781;29;20048;-77
2023/04/30 22:12:52;;;;;;;1.90;1.80;;;;;;;;;;4918852;29;20055;-76
2023/04/30 22:15:18;;;;;;;1.80;1.70;;;;;;;;;;4918817;29;20024;-76
2023/04/30 22:17:44;;;;;;;2.00;1.90;;;;;;;;;;4918521;29;20046;-77
2023/04/30 22:20:11;;;;;;;1.98;1.88;;;;;;;;;;4918696;29;20071;-77
2023/04/30 22:22:36;;;;;;;2.30;2.13;;;;;;;;;;4918848;29;20032;-77
2023/04/30 22:25:03;;;;;;;1.85;1.75;;;;;;;;;;4918472;29;20039;-77
2023/04/30 22:27:29;;;;;;;2.10;1.90;;;;;;;;;;4918437;29;20035;-77
2023/04/30 22:29:54;;;;;;;2.05;1.80;;;;;;;;;;4918281;29;20488;-77
2023/04/30 22:32:19;;;;;;;2.15;1.95;;;;;;;;;;4917592;29;20482;-77
2023/04/30 22:34:45;;;;;;;1.88;1.70;;;;;;;;;;4918419;29;20483;-77
2023/04/30 22:37:10;;;;;;;1.98;1.88;;;;;;;;;;4918473;29;20063;-76
2023/04/30 22:39:37;;;;;;;2.08;1.90;;;;;;;;;;4918348;29;20040;-77
2023/04/30 22:42:03;;;;;;;2.00;1.80;;;;;;;;;;4918361;29;20024;-77
2023/04/30 22:44:29;;;;;;;2.80;2.40;;;;;;;;;;4917940;29;20024;-77
2023/04/30 22:46:56;;;;;;;2.13;2.00;;;;;;;;;;4918274;29;20487;-77
2023/04/30 22:49:23;;;;;;;2.65;2.10;;;;;;;;;;4918308;29;20071;-77
2023/04/30 22:51:49;;;;;;;1.98;1.88;;;;;;;;;;4918082;29;20059;-77
2023/04/30 22:54:14;;;;;;;2.80;1.90;;;;;;;;;;4918060;29;20036;-78
2023/04/30 22:56:40;;;;;;;2.20;2.00;;;;;;;;;;4917764;29;20039;-77
2023/04/30 22:59:05;;;;;;;2.08;1.98;;;;;;;;;;4917952;29;20044;-77
2023/04/30 23:01:34;;;;;;;3.83;2.03;;;;;;;;;;4918149;29;20020;-76
2023/04/30 23:04:00;;;;;;;2.20;2.00;;;;;;;;;;4917591;29;20044;-76
2023/04/30 23:06:26;;;;;;;2.75;2.50;;;;;;;;;;4918120;29;20515;-77
2023/04/30 23:08:52;;;;;;;2.83;2.10;;;;;;;;;;4917959;29;20028;-80
2023/04/30 23:11:18;;;;;;;2.35;2.15;;;;;;;;;;4917666;29;20482;-77
2023/04/30 23:13:43;;;;;;;2.20;2.10;;;;;;;;;;4917861;29;20032;-76
2023/04/30 23:16:10;;;;;;;2.00;1.90;;;;;;;;;;4917588;29;20028;-77
2023/04/30 23:18:36;;;;;;;2.10;2.00;;;;;;;;;;4900425;29;20376;-77
2023/04/30 23:21:02;;;;;;;2.00;1.90;;;;;;;;;;4917457;29;20064;-77
2023/04/30 23:23:28;;;;;;;3.88;2.10;;;;;;;;;;4917743;29;20028;-79
2023/04/30 23:25:54;;;;;;;2.25;2.05;;;;;;;;;;4917674;29;20083;-77
2023/04/30 23:28:20;;;;;;;2.67;2.47;;;;;;;;;;4917261;29;20036;-78
2023/04/30 23:30:49;;;;;;;2.83;2.63;;;;;;;;;;4917396;29;20064;-77
2023/04/30 23:33:15;;;;;;;2.45;2.20;;;;;;;;;;4917781;29;20118;-77
2023/04/30 23:35:42;;;;;;;2.33;2.13;;;;;;;;;;4917610;29;20511;-77
2023/04/30 23:38:08;;;;;;;2.00;1.90;;;;;;;;;;4917392;29;20032;-77
2023/04/30 23:40:33;;;;;;;2.03;1.88;;;;;;;;;;4917535;29;20032;-77
2023/04/30 23:42:59;;;;;;;2.45;2.00;;;;;;;;;;4918078;29;20349;-76
2023/04/30 23:45:24;;;;;;;2.50;2.05;;;;;;;;;;4921527;29;20047;-77
2023/04/30 23:47:50;;;;;;;2.60;2.40;;;;;;;;;;4921278;29;20038;-77
2023/04/30 23:50:16;;;;;;;2.50;2.30;;;;;;;;;;4921539;29;20024;-77
2023/04/30 23:52:42;;;;;;;2.30;2.10;;;;;;;;;;4921269;29;20032;-76
2023/04/30 23:55:07;;;;;;;2.60;2.40;;;;;;;;;;4921179;29;20024;-77
2023/04/30 23:57:32;;;;;;;2.38;2.17;;;;;;;;;;4920903;29;20052;-77
2023/04/30 23:59:58;;;;;;;2.42;2.22;;;;;;;;;;4904119;29;20032;-76
